sensor_id;sensor_type;location;lat;lon;timestamp;P1;durP1;ratioP1;P2;durP2;ratioP2
29382;SDS011;16365;51.598;7.668;2023-02-28T00:00:53;5.57;;;2.15;;
29382;SDS011;16365;51.598;7.668;2023-02-28T00:03:20;4.55;;;2.38;;
29382;SDS011;16365;51.598;7.668;2023-02-28T00:05:46;5.32;;;2.50;;
29382;SDS011;16365;51.598;7.668;2023-02-28T00:08:12;7.00;;;2.20;;
29382;SDS011;16365;51.598;7.668;2023-02-28T00:10:39;12.25;;;2.47;;
29382;SDS011;16365;51.598;7.668;2023-02-28T00:13:06;6.70;;;2.45;;
29382;SDS011;16365;51.598;7.668;2023-02-28T00:15:32;8.65;;;2.90;;
29382;SDS011;16365;51.598;7.668;2023-02-28T00:18:01;9.40;;;2.90;;
29382;SDS011;16365;51.598;7.668;2023-02-28T00:20:28;11.68;;;2.50;;
29382;SDS011;16365;51.598;7.668;2023-02-28T00:22:55;9.43;;;2.55;;
29382;SDS011;16365;51.598;7.668;2023-02-28T00:25:23;8.60;;;2.05;;
29382;SDS011;16365;51.598;7.668;2023-02-28T00:27:51;7.72;;;2.50;;
29382;SDS011;16365;51.598;7.668;2023-02-28T00:30:19;7.28;;;2.55;;
29382;SDS011;16365;51.598;7.668;2023-02-28T00:32:47;10.63;;;2.55;;
29382;SDS011;16365;51.598;7.668;2023-02-28T00:35:14;4.60;;;2.60;;
29382;SDS011;16365;51.598;7.668;2023-02-28T00:37:41;5.28;;;2.65;;
29382;SDS011;16365;51.598;7.668;2023-02-28T00:40:09;5.05;;;2.42;;
29382;SDS011;16365;51.598;7.668;2023-02-28T00:42:37;5.47;;;2.20;;
29382;SDS011;16365;51.598;7.668;2023-02-28T00:45:04;7.97;;;2.63;;
29382;SDS011;16365;51.598;7.668;2023-02-28T00:47:31;6.40;;;2.00;;
29382;SDS011;16365;51.598;7.668;2023-02-28T00:49:58;7.10;;;2.53;;
29382;SDS011;16365;51.598;7.668;2023-02-28T00:52:25;7.13;;;2.38;;
29382;SDS011;16365;51.598;7.668;2023-02-28T00:54:51;6.47;;;2.40;;
29382;SDS011;16365;51.598;7.668;2023-02-28T00:57:18;7.85;;;2.40;;
29382;SDS011;16365;51.598;7.668;2023-02-28T00:59:44;7.03;;;2.67;;
29382;SDS011;16365;51.598;7.668;2023-02-28T01:02:11;10.02;;;2.65;;
29382;SDS011;16365;51.598;7.668;2023-02-28T01:04:37;3.60;;;2.15;;
29382;SDS011;16365;51.598;7.668;2023-02-28T01:07:05;7.82;;;2.70;;
29382;SDS011;16365;51.598;7.668;2023-02-28T01:09:31;3.60;;;1.80;;
29382;SDS011;16365;51.598;7.668;2023-02-28T01:11:58;4.90;;;2.42;;
29382;SDS011;16365;51.598;7.668;2023-02-28T01:14:25;3.33;;;2.08;;
29382;SDS011;16365;51.598;7.668;2023-02-28T01:16:52;5.65;;;2.70;;
29382;SDS011;16365;51.598;7.668;2023-02-28T01:19:18;9.48;;;2.78;;
29382;SDS011;16365;51.598;7.668;2023-02-28T01:21:45;7.50;;;2.53;;
29382;SDS011;16365;51.598;7.668;2023-02-28T01:24:12;7.50;;;2.67;;
29382;SDS011;16365;51.598;7.668;2023-02-28T01:26:38;5.65;;;2.80;;
29382;SDS011;16365;51.598;7.668;2023-02-28T01:29:05;9.27;;;3.70;;
29382;SDS011;16365;51.598;7.668;2023-02-28T01:31:31;10.43;;;2.97;;
29382;SDS011;16365;51.598;7.668;2023-02-28T01:33:58;6.60;;;2.70;;
29382;SDS011;16365;51.598;7.668;2023-02-28T01:36:25;8.48;;;2.60;;
29382;SDS011;16365;51.598;7.668;2023-02-28T01:38:52;7.53;;;3.08;;
29382;SDS011;16365;51.598;7.668;2023-02-28T01:41:22;11.48;;;2.58;;
29382;SDS011;16365;51.598;7.668;2023-02-28T01:43:58;10.82;;;2.78;;
29382;SDS011;16365;51.598;7.668;2023-02-28T01:46:31;12.30;;;2.92;;
29382;SDS011;16365;51.598;7.668;2023-02-28T01:49:04;8.40;;;2.50;;
29382;SDS011;16365;51.598;7.668;2023-02-28T01:51:45;9.70;;;3.30;;
29382;SDS011;16365;51.598;7.668;2023-02-28T01:54:21;8.15;;;2.60;;
29382;SDS011;16365;51.598;7.668;2023-02-28T01:57:02;15.40;;;2.53;;
29382;SDS011;16365;51.598;7.668;2023-02-28T01:59:37;13.90;;;3.53;;
29382;SDS011;16365;51.598;7.668;2023-02-28T02:02:17;13.02;;;3.28;;
29382;SDS011;16365;51.598;7.668;2023-02-28T02:04:55;13.18;;;2.67;;
29382;SDS011;16365;51.598;7.668;2023-02-28T02:07:29;13.80;;;4.30;;
29382;SDS011;16365;51.598;7.668;2023-02-28T02:09:59;9.23;;;2.25;;
29382;SDS011;16365;51.598;7.668;2023-02-28T02:20:54;10.45;;;2.83;;
29382;SDS011;16365;51.598;7.668;2023-02-28T02:23:50;4.85;;;2.22;;
29382;SDS011;16365;51.598;7.668;2023-02-28T02:29:54;13.63;;;2.60;;
29382;SDS011;16365;51.598;7.668;2023-02-28T02:37:58;9.43;;;2.67;;
29382;SDS011;16365;51.598;7.668;2023-02-28T02:40:41;6.00;;;2.50;;
29382;SDS011;16365;51.598;7.668;2023-02-28T02:43:14;4.53;;;2.13;;
29382;SDS011;16365;51.598;7.668;2023-02-28T02:45:47;6.43;;;2.28;;
29382;SDS011;16365;51.598;7.668;2023-02-28T02:48:18;9.45;;;2.30;;
29382;SDS011;16365;51.598;7.668;2023-02-28T02:50:51;5.22;;;2.35;;
29382;SDS011;16365;51.598;7.668;2023-02-28T02:53:25;6.95;;;2.47;;
29382;SDS011;16365;51.598;7.668;2023-02-28T02:55:58;9.43;;;2.65;;
29382;SDS011;16365;51.598;7.668;2023-02-28T02:58:29;7.28;;;2.65;;
29382;SDS011;16365;51.598;7.668;2023-02-28T03:01:00;12.38;;;2.58;;
29382;SDS011;16365;51.598;7.668;2023-02-28T03:03:29;6.50;;;2.75;;
29382;SDS011;16365;51.598;7.668;2023-02-28T03:05:59;10.20;;;2.58;;
29382;SDS011;16365;51.598;7.668;2023-02-28T03:10:56;9.45;;;2.50;;
29382;SDS011;16365;51.598;7.668;2023-02-28T03:16:34;4.22;;;2.28;;
29382;SDS011;16365;51.598;7.668;2023-02-28T03:22:14;4.10;;;2.30;;
29382;SDS011;16365;51.598;7.668;2023-02-28T03:27:58;11.00;;;2.83;;
29382;SDS011;16365;51.598;7.668;2023-02-28T03:30:39;11.25;;;2.75;;
29382;SDS011;16365;51.598;7.668;2023-02-28T03:33:28;7.18;;;2.78;;
29382;SDS011;16365;51.598;7.668;2023-02-28T03:36:19;9.77;;;2.60;;
29382;SDS011;16365;51.598;7.668;2023-02-28T03:38:59;6.03;;;2.83;;
29382;SDS011;16365;51.598;7.668;2023-02-28T03:41:32;11.95;;;2.78;;
29382;SDS011;16365;51.598;7.668;2023-02-28T03:44:12;10.48;;;2.85;;
29382;SDS011;16365;51.598;7.668;2023-02-28T03:46:44;9.85;;;2.58;;
29382;SDS011;16365;51.598;7.668;2023-02-28T03:49:18;12.98;;;2.90;;
29382;SDS011;16365;51.598;7.668;2023-02-28T03:51:48;10.07;;;2.92;;
29382;SDS011;16365;51.598;7.668;2023-02-28T03:54:22;14.77;;;2.80;;
29382;SDS011;16365;51.598;7.668;2023-02-28T03:56:59;16.92;;;3.50;;
29382;SDS011;16365;51.598;7.668;2023-02-28T03:59:28;9.48;;;3.05;;
29382;SDS011;16365;51.598;7.668;2023-02-28T04:02:00;13.88;;;3.40;;
29382;SDS011;16365;51.598;7.668;2023-02-28T04:04:27;12.73;;;3.45;;
29382;SDS011;16365;51.598;7.668;2023-02-28T04:07:00;9.18;;;3.70;;
29382;SDS011;16365;51.598;7.668;2023-02-28T04:09:31;15.75;;;3.28;;
29382;SDS011;16365;51.598;7.668;2023-02-28T04:11:58;18.52;;;4.00;;
29382;SDS011;16365;51.598;7.668;2023-02-28T04:14:24;10.90;;;3.75;;
29382;SDS011;16365;51.598;7.668;2023-02-28T04:16:51;16.25;;;3.22;;
29382;SDS011;16365;51.598;7.668;2023-02-28T04:19:18;8.25;;;2.83;;
29382;SDS011;16365;51.598;7.668;2023-02-28T04:21:49;5.93;;;3.00;;
29382;SDS011;16365;51.598;7.668;2023-02-28T04:24:20;6.95;;;3.17;;
29382;SDS011;16365;51.598;7.668;2023-02-28T04:26:49;5.72;;;3.05;;
29382;SDS011;16365;51.598;7.668;2023-02-28T04:29:19;15.80;;;3.97;;
29382;SDS011;16365;51.598;7.668;2023-02-28T04:31:47;5.57;;;3.03;;
29382;SDS011;16365;51.598;7.668;2023-02-28T04:34:14;13.30;;;3.15;;
29382;SDS011;16365;51.598;7.668;2023-02-28T04:36:41;9.70;;;3.92;;
29382;SDS011;16365;51.598;7.668;2023-02-28T04:39:07;12.00;;;3.47;;
29382;SDS011;16365;51.598;7.668;2023-02-28T04:41:35;8.57;;;3.33;;
29382;SDS011;16365;51.598;7.668;2023-02-28T04:44:02;9.05;;;3.08;;
29382;SDS011;16365;51.598;7.668;2023-02-28T04:46:30;13.27;;;3.58;;
29382;SDS011;16365;51.598;7.668;2023-02-28T04:48:56;11.88;;;3.40;;
29382;SDS011;16365;51.598;7.668;2023-02-28T04:51:23;6.00;;;3.17;;
29382;SDS011;16365;51.598;7.668;2023-02-28T04:53:49;6.68;;;3.30;;
29382;SDS011;16365;51.598;7.668;2023-02-28T04:56:16;7.95;;;3.00;;
29382;SDS011;16365;51.598;7.668;2023-02-28T04:58:44;6.20;;;2.85;;
29382;SDS011;16365;51.598;7.668;2023-02-28T05:01:53;4.55;;;2.72;;
29382;SDS011;16365;51.598;7.668;2023-02-28T05:04:02;10.55;;;2.75;;
29382;SDS011;16365;51.598;7.668;2023-02-28T05:08:59;4.00;;;2.55;;
29382;SDS011;16365;51.598;7.668;2023-02-28T05:11:31;8.30;;;3.03;;
29382;SDS011;16365;51.598;7.668;2023-02-28T05:14:03;8.13;;;3.00;;
29382;SDS011;16365;51.598;7.668;2023-02-28T05:16:31;8.32;;;3.20;;
29382;SDS011;16365;51.598;7.668;2023-02-28T05:19:00;5.85;;;2.67;;
29382;SDS011;16365;51.598;7.668;2023-02-28T05:21:28;7.90;;;3.13;;
29382;SDS011;16365;51.598;7.668;2023-02-28T05:24:00;7.70;;;2.60;;
29382;SDS011;16365;51.598;7.668;2023-02-28T05:26:28;7.13;;;3.13;;
29382;SDS011;16365;51.598;7.668;2023-02-28T05:28:55;10.57;;;3.40;;
29382;SDS011;16365;51.598;7.668;2023-02-28T05:31:28;7.05;;;2.85;;
29382;SDS011;16365;51.598;7.668;2023-02-28T05:33:55;13.15;;;3.20;;
29382;SDS011;16365;51.598;7.668;2023-02-28T05:36:23;9.02;;;3.35;;
29382;SDS011;16365;51.598;7.668;2023-02-28T05:38:50;8.90;;;3.40;;
29382;SDS011;16365;51.598;7.668;2023-02-28T05:41:18;9.45;;;3.05;;
29382;SDS011;16365;51.598;7.668;2023-02-28T05:46:13;6.07;;;2.65;;
29382;SDS011;16365;51.598;7.668;2023-02-28T05:48:41;7.28;;;2.95;;
29382;SDS011;16365;51.598;7.668;2023-02-28T05:51:09;6.90;;;3.05;;
29382;SDS011;16365;51.598;7.668;2023-02-28T05:53:36;6.80;;;3.78;;
29382;SDS011;16365;51.598;7.668;2023-02-28T05:56:07;8.02;;;3.28;;
29382;SDS011;16365;51.598;7.668;2023-02-28T05:58:33;13.40;;;3.28;;
29382;SDS011;16365;51.598;7.668;2023-02-28T06:01:01;7.63;;;3.60;;
29382;SDS011;16365;51.598;7.668;2023-02-28T06:03:49;16.27;;;3.55;;
29382;SDS011;16365;51.598;7.668;2023-02-28T06:06:16;10.00;;;3.50;;
29382;SDS011;16365;51.598;7.668;2023-02-28T06:08:43;7.72;;;3.47;;
29382;SDS011;16365;51.598;7.668;2023-02-28T06:11:10;41.00;;;6.25;;
29382;SDS011;16365;51.598;7.668;2023-02-28T06:13:37;14.23;;;3.70;;
29382;SDS011;16365;51.598;7.668;2023-02-28T06:16:03;19.55;;;4.15;;
29382;SDS011;16365;51.598;7.668;2023-02-28T06:18:30;9.15;;;3.47;;
29382;SDS011;16365;51.598;7.668;2023-02-28T06:20:57;8.93;;;3.35;;
29382;SDS011;16365;51.598;7.668;2023-02-28T06:23:23;7.45;;;3.30;;
29382;SDS011;16365;51.598;7.668;2023-02-28T06:25:49;7.90;;;3.55;;
29382;SDS011;16365;51.598;7.668;2023-02-28T06:28:16;8.20;;;3.70;;
29382;SDS011;16365;51.598;7.668;2023-02-28T06:30:43;8.30;;;3.97;;
29382;SDS011;16365;51.598;7.668;2023-02-28T06:33:11;13.55;;;5.25;;
29382;SDS011;16365;51.598;7.668;2023-02-28T06:35:38;15.10;;;5.05;;
29382;SDS011;16365;51.598;7.668;2023-02-28T06:38:04;11.52;;;3.92;;
29382;SDS011;16365;51.598;7.668;2023-02-28T06:40:30;12.90;;;4.50;;
29382;SDS011;16365;51.598;7.668;2023-02-28T06:43:00;13.15;;;4.20;;
29382;SDS011;16365;51.598;7.668;2023-02-28T06:45:26;10.25;;;4.28;;
29382;SDS011;16365;51.598;7.668;2023-02-28T06:47:53;19.83;;;5.70;;
29382;SDS011;16365;51.598;7.668;2023-02-28T06:50:20;22.58;;;5.05;;
29382;SDS011;16365;51.598;7.668;2023-02-28T06:52:46;8.43;;;3.92;;
29382;SDS011;16365;51.598;7.668;2023-02-28T06:55:13;9.68;;;5.13;;
29382;SDS011;16365;51.598;7.668;2023-02-28T06:57:40;15.20;;;5.00;;
29382;SDS011;16365;51.598;7.668;2023-02-28T07:00:07;17.13;;;5.68;;
29382;SDS011;16365;51.598;7.668;2023-02-28T07:02:35;13.98;;;4.55;;
29382;SDS011;16365;51.598;7.668;2023-02-28T07:05:04;14.80;;;4.75;;
29382;SDS011;16365;51.598;7.668;2023-02-28T07:07:31;14.88;;;4.25;;
29382;SDS011;16365;51.598;7.668;2023-02-28T07:09:58;7.85;;;4.13;;
29382;SDS011;16365;51.598;7.668;2023-02-28T07:12:25;19.15;;;4.28;;
29382;SDS011;16365;51.598;7.668;2023-02-28T07:14:51;13.55;;;4.78;;
29382;SDS011;16365;51.598;7.668;2023-02-28T07:17:17;18.65;;;5.07;;
29382;SDS011;16365;51.598;7.668;2023-02-28T07:19:44;17.42;;;4.80;;
29382;SDS011;16365;51.598;7.668;2023-02-28T07:22:10;11.95;;;4.82;;
29382;SDS011;16365;51.598;7.668;2023-02-28T07:24:38;13.23;;;5.03;;
29382;SDS011;16365;51.598;7.668;2023-02-28T07:27:05;10.23;;;5.88;;
29382;SDS011;16365;51.598;7.668;2023-02-28T07:29:32;10.10;;;5.13;;
29382;SDS011;16365;51.598;7.668;2023-02-28T07:31:58;11.57;;;4.72;;
29382;SDS011;16365;51.598;7.668;2023-02-28T07:34:25;9.32;;;4.68;;
29382;SDS011;16365;51.598;7.668;2023-02-28T07:36:52;14.23;;;5.13;;
29382;SDS011;16365;51.598;7.668;2023-02-28T07:39:20;10.45;;;4.60;;
29382;SDS011;16365;51.598;7.668;2023-02-28T07:41:47;14.82;;;5.32;;
29382;SDS011;16365;51.598;7.668;2023-02-28T07:44:14;7.28;;;4.10;;
29382;SDS011;16365;51.598;7.668;2023-02-28T07:46:40;13.15;;;5.05;;
29382;SDS011;16365;51.598;7.668;2023-02-28T07:49:07;11.93;;;4.40;;
29382;SDS011;16365;51.598;7.668;2023-02-28T07:51:33;16.67;;;4.78;;
29382;SDS011;16365;51.598;7.668;2023-02-28T07:54:00;15.13;;;5.57;;
29382;SDS011;16365;51.598;7.668;2023-02-28T07:56:26;8.95;;;4.88;;
29382;SDS011;16365;51.598;7.668;2023-02-28T07:58:53;12.95;;;5.00;;
29382;SDS011;16365;51.598;7.668;2023-02-28T08:01:20;8.82;;;4.47;;
29382;SDS011;16365;51.598;7.668;2023-02-28T08:03:46;12.50;;;4.45;;
29382;SDS011;16365;51.598;7.668;2023-02-28T08:06:17;11.05;;;4.07;;
29382;SDS011;16365;51.598;7.668;2023-02-28T08:08:46;6.68;;;3.90;;
29382;SDS011;16365;51.598;7.668;2023-02-28T08:11:13;9.65;;;4.13;;
29382;SDS011;16365;51.598;7.668;2023-02-28T08:13:40;9.73;;;3.72;;
29382;SDS011;16365;51.598;7.668;2023-02-28T08:16:08;8.93;;;4.20;;
29382;SDS011;16365;51.598;7.668;2023-02-28T08:18:35;7.43;;;3.75;;
29382;SDS011;16365;51.598;7.668;2023-02-28T08:21:06;12.55;;;3.70;;
29382;SDS011;16365;51.598;7.668;2023-02-28T08:23:33;8.73;;;3.60;;
29382;SDS011;16365;51.598;7.668;2023-02-28T08:25:59;7.53;;;3.70;;
29382;SDS011;16365;51.598;7.668;2023-02-28T08:28:26;10.27;;;3.88;;
29382;SDS011;16365;51.598;7.668;2023-02-28T08:30:53;8.32;;;3.92;;
29382;SDS011;16365;51.598;7.668;2023-02-28T08:33:19;13.10;;;4.60;;
29382;SDS011;16365;51.598;7.668;2023-02-28T08:35:46;12.18;;;4.10;;
29382;SDS011;16365;51.598;7.668;2023-02-28T08:38:13;7.35;;;4.13;;
29382;SDS011;16365;51.598;7.668;2023-02-28T08:40:39;11.10;;;4.45;;
29382;SDS011;16365;51.598;7.668;2023-02-28T08:43:06;11.23;;;4.63;;
29382;SDS011;16365;51.598;7.668;2023-02-28T08:45:33;10.40;;;4.82;;
29382;SDS011;16365;51.598;7.668;2023-02-28T08:47:59;9.82;;;4.47;;
29382;SDS011;16365;51.598;7.668;2023-02-28T08:50:26;7.68;;;4.30;;
29382;SDS011;16365;51.598;7.668;2023-02-28T08:52:52;6.22;;;3.80;;
29382;SDS011;16365;51.598;7.668;2023-02-28T08:55:19;7.72;;;3.80;;
29382;SDS011;16365;51.598;7.668;2023-02-28T08:57:47;8.68;;;3.97;;
29382;SDS011;16365;51.598;7.668;2023-02-28T09:00:13;8.43;;;3.58;;
29382;SDS011;16365;51.598;7.668;2023-02-28T09:02:40;8.73;;;3.40;;
29382;SDS011;16365;51.598;7.668;2023-02-28T09:05:09;12.70;;;3.47;;
29382;SDS011;16365;51.598;7.668;2023-02-28T09:07:36;6.45;;;3.25;;
29382;SDS011;16365;51.598;7.668;2023-02-28T09:10:02;9.38;;;3.13;;
29382;SDS011;16365;51.598;7.668;2023-02-28T09:12:32;5.47;;;3.53;;
29382;SDS011;16365;51.598;7.668;2023-02-28T09:15:00;6.20;;;3.40;;
29382;SDS011;16365;51.598;7.668;2023-02-28T09:17:27;8.63;;;2.95;;
29382;SDS011;16365;51.598;7.668;2023-02-28T09:19:56;6.63;;;2.85;;
29382;SDS011;16365;51.598;7.668;2023-02-28T09:22:23;3.92;;;2.70;;
29382;SDS011;16365;51.598;7.668;2023-02-28T09:24:49;7.88;;;3.47;;
29382;SDS011;16365;51.598;7.668;2023-02-28T09:27:16;6.18;;;2.85;;
29382;SDS011;16365;51.598;7.668;2023-02-28T09:29:43;8.65;;;2.80;;
29382;SDS011;16365;51.598;7.668;2023-02-28T09:32:09;7.75;;;2.83;;
29382;SDS011;16365;51.598;7.668;2023-02-28T09:34:36;5.65;;;2.70;;
29382;SDS011;16365;51.598;7.668;2023-02-28T09:37:03;7.25;;;2.88;;
29382;SDS011;16365;51.598;7.668;2023-02-28T09:39:29;6.25;;;2.50;;
29382;SDS011;16365;51.598;7.668;2023-02-28T09:41:57;8.35;;;2.65;;
29382;SDS011;16365;51.598;7.668;2023-02-28T09:44:28;3.92;;;2.63;;
29382;SDS011;16365;51.598;7.668;2023-02-28T09:49:53;6.53;;;2.60;;
29382;SDS011;16365;51.598;7.668;2023-02-28T09:52:27;8.07;;;3.13;;
29382;SDS011;16365;51.598;7.668;2023-02-28T09:54:59;6.18;;;2.83;;
29382;SDS011;16365;51.598;7.668;2023-02-28T09:57:44;4.97;;;2.78;;
29382;SDS011;16365;51.598;7.668;2023-02-28T10:00:17;4.55;;;2.63;;
29382;SDS011;16365;51.598;7.668;2023-02-28T10:03:04;5.43;;;2.85;;
29382;SDS011;16365;51.598;7.668;2023-02-28T10:05:56;5.55;;;3.03;;
29382;SDS011;16365;51.598;7.668;2023-02-28T10:08:36;4.65;;;2.47;;
29382;SDS011;16365;51.598;7.668;2023-02-28T10:11:14;4.35;;;2.20;;
29382;SDS011;16365;51.598;7.668;2023-02-28T10:13:49;9.88;;;2.90;;
29382;SDS011;16365;51.598;7.668;2023-02-28T10:16:37;4.85;;;2.60;;
29382;SDS011;16365;51.598;7.668;2023-02-28T10:19:20;4.72;;;2.38;;
29382;SDS011;16365;51.598;7.668;2023-02-28T10:21:59;4.22;;;2.22;;
29382;SDS011;16365;51.598;7.668;2023-02-28T10:24:50;6.47;;;2.90;;
29382;SDS011;16365;51.598;7.668;2023-02-28T10:27:20;4.65;;;2.45;;
29382;SDS011;16365;51.598;7.668;2023-02-28T10:29:58;5.32;;;2.22;;
29382;SDS011;16365;51.598;7.668;2023-02-28T10:32:27;7.30;;;2.53;;
29382;SDS011;16365;51.598;7.668;2023-02-28T10:34:59;3.63;;;2.15;;
29382;SDS011;16365;51.598;7.668;2023-02-28T10:37:26;3.33;;;1.98;;
29382;SDS011;16365;51.598;7.668;2023-02-28T10:39:54;3.63;;;2.30;;
29382;SDS011;16365;51.598;7.668;2023-02-28T10:42:26;4.28;;;2.58;;
29382;SDS011;16365;51.598;7.668;2023-02-28T10:45:09;3.22;;;2.30;;
29382;SDS011;16365;51.598;7.668;2023-02-28T10:53:05;4.65;;;2.30;;
29382;SDS011;16365;51.598;7.668;2023-02-28T10:55:41;4.43;;;2.10;;
29382;SDS011;16365;51.598;7.668;2023-02-28T10:58:26;6.80;;;2.38;;
29382;SDS011;16365;51.598;7.668;2023-02-28T11:00:54;3.88;;;2.25;;
29382;SDS011;16365;51.598;7.668;2023-02-28T11:03:27;4.72;;;2.25;;
29382;SDS011;16365;51.598;7.668;2023-02-28T11:05:57;6.88;;;2.90;;
29382;SDS011;16365;51.598;7.668;2023-02-28T11:08:24;5.90;;;2.65;;
29382;SDS011;16365;51.598;7.668;2023-02-28T11:10:55;4.57;;;2.30;;
29382;SDS011;16365;51.598;7.668;2023-02-28T11:13:28;4.38;;;2.33;;
29382;SDS011;16365;51.598;7.668;2023-02-28T11:16:00;5.32;;;2.45;;
29382;SDS011;16365;51.598;7.668;2023-02-28T11:18:50;6.63;;;2.45;;
29382;SDS011;16365;51.598;7.668;2023-02-28T11:23:53;5.90;;;3.17;;
29382;SDS011;16365;51.598;7.668;2023-02-28T11:26:43;3.45;;;2.33;;
29382;SDS011;16365;51.598;7.668;2023-02-28T11:29:16;5.30;;;2.78;;
29382;SDS011;16365;51.598;7.668;2023-02-28T11:31:43;5.60;;;2.90;;
29382;SDS011;16365;51.598;7.668;2023-02-28T11:34:22;7.13;;;3.03;;
29382;SDS011;16365;51.598;7.668;2023-02-28T11:36:52;5.45;;;2.95;;
29382;SDS011;16365;51.598;7.668;2023-02-28T11:39:20;5.03;;;3.08;;
29382;SDS011;16365;51.598;7.668;2023-02-28T11:41:52;6.80;;;3.42;;
29382;SDS011;16365;51.598;7.668;2023-02-28T11:44:43;5.75;;;3.47;;
29382;SDS011;16365;51.598;7.668;2023-02-28T11:47:17;5.57;;;3.53;;
29382;SDS011;16365;51.598;7.668;2023-02-28T11:49:50;5.63;;;3.90;;
29382;SDS011;16365;51.598;7.668;2023-02-28T11:58:07;5.35;;;3.63;;
29382;SDS011;16365;51.598;7.668;2023-02-28T12:04:03;4.00;;;3.17;;
29382;SDS011;16365;51.598;7.668;2023-02-28T12:06:55;5.00;;;3.28;;
29382;SDS011;16365;51.598;7.668;2023-02-28T12:09:30;5.95;;;3.30;;
29382;SDS011;16365;51.598;7.668;2023-02-28T12:17:55;5.30;;;3.25;;
29382;SDS011;16365;51.598;7.668;2023-02-28T12:23:44;8.10;;;3.60;;
29382;SDS011;16365;51.598;7.668;2023-02-28T12:26:36;11.40;;;3.40;;
29382;SDS011;16365;51.598;7.668;2023-02-28T12:29:10;5.82;;;3.40;;
29382;SDS011;16365;51.598;7.668;2023-02-28T12:31:47;4.45;;;2.97;;
29382;SDS011;16365;51.598;7.668;2023-02-28T12:34:20;5.68;;;3.10;;
29382;SDS011;16365;51.598;7.668;2023-02-28T12:36:51;6.47;;;3.10;;
29382;SDS011;16365;51.598;7.668;2023-02-28T12:42:26;5.85;;;3.78;;
29382;SDS011;16365;51.598;7.668;2023-02-28T12:44:59;6.75;;;3.78;;
29382;SDS011;16365;51.598;7.668;2023-02-28T12:47:29;5.43;;;2.90;;
29382;SDS011;16365;51.598;7.668;2023-02-28T12:49:57;7.20;;;3.80;;
29382;SDS011;16365;51.598;7.668;2023-02-28T12:58:20;6.10;;;3.60;;
29382;SDS011;16365;51.598;7.668;2023-02-28T13:01:29;5.80;;;3.30;;
29382;SDS011;16365;51.598;7.668;2023-02-28T13:09:12;5.97;;;3.88;;
29382;SDS011;16365;51.598;7.668;2023-02-28T13:11:47;8.45;;;4.00;;
29382;SDS011;16365;51.598;7.668;2023-02-28T13:14:20;4.25;;;3.13;;
29382;SDS011;16365;51.598;7.668;2023-02-28T13:16:54;7.28;;;4.20;;
29382;SDS011;16365;51.598;7.668;2023-02-28T13:19:25;8.60;;;3.75;;
29382;SDS011;16365;51.598;7.668;2023-02-28T13:21:53;5.28;;;3.90;;
29382;SDS011;16365;51.598;7.668;2023-02-28T13:24:36;9.77;;;3.97;;
29382;SDS011;16365;51.598;7.668;2023-02-28T13:29:39;5.50;;;3.47;;
29382;SDS011;16365;51.598;7.668;2023-02-28T13:34:35;6.82;;;3.67;;
29382;SDS011;16365;51.598;7.668;2023-02-28T13:39:50;6.53;;;3.38;;
29382;SDS011;16365;51.598;7.668;2023-02-28T13:47:28;10.52;;;3.78;;
29382;SDS011;16365;51.598;7.668;2023-02-28T14:04:36;7.50;;;3.85;;
29382;SDS011;16365;51.598;7.668;2023-02-28T14:07:20;6.32;;;4.20;;
29382;SDS011;16365;51.598;7.668;2023-02-28T14:10:15;6.00;;;3.30;;
29382;SDS011;16365;51.598;7.668;2023-02-28T14:15:41;6.05;;;3.50;;
29382;SDS011;16365;51.598;7.668;2023-02-28T14:18:14;6.72;;;4.32;;
29382;SDS011;16365;51.598;7.668;2023-02-28T14:20:44;7.70;;;4.07;;
29382;SDS011;16365;51.598;7.668;2023-02-28T14:23:16;5.15;;;3.42;;
29382;SDS011;16365;51.598;7.668;2023-02-28T14:28:51;5.18;;;3.70;;
29382;SDS011;16365;51.598;7.668;2023-02-28T14:31:43;12.52;;;4.20;;
29382;SDS011;16365;51.598;7.668;2023-02-28T14:37:10;5.68;;;3.42;;
29382;SDS011;16365;51.598;7.668;2023-02-28T14:39:45;5.22;;;3.40;;
29382;SDS011;16365;51.598;7.668;2023-02-28T14:42:27;6.13;;;3.90;;
29382;SDS011;16365;51.598;7.668;2023-02-28T14:45:01;7.53;;;4.05;;
29382;SDS011;16365;51.598;7.668;2023-02-28T14:47:32;7.10;;;3.47;;
29382;SDS011;16365;51.598;7.668;2023-02-28T14:50:02;7.03;;;3.58;;
29382;SDS011;16365;51.598;7.668;2023-02-28T14:52:31;5.38;;;3.80;;
29382;SDS011;16365;51.598;7.668;2023-02-28T14:55:00;6.65;;;4.03;;
29382;SDS011;16365;51.598;7.668;2023-02-28T14:57:34;6.50;;;3.80;;
29382;SDS011;16365;51.598;7.668;2023-02-28T15:00:16;8.68;;;3.90;;
29382;SDS011;16365;51.598;7.668;2023-02-28T15:02:47;7.55;;;4.22;;
29382;SDS011;16365;51.598;7.668;2023-02-28T15:07:44;6.97;;;4.50;;
29382;SDS011;16365;51.598;7.668;2023-02-28T15:10:23;5.65;;;3.78;;
29382;SDS011;16365;51.598;7.668;2023-02-28T15:12:58;8.02;;;3.90;;
29382;SDS011;16365;51.598;7.668;2023-02-28T15:16:10;6.90;;;3.80;;
29382;SDS011;16365;51.598;7.668;2023-02-28T15:21:02;4.95;;;3.67;;
29382;SDS011;16365;51.598;7.668;2023-02-28T15:23:32;6.18;;;3.40;;
29382;SDS011;16365;51.598;7.668;2023-02-28T15:26:02;5.32;;;3.67;;
29382;SDS011;16365;51.598;7.668;2023-02-28T15:28:29;6.13;;;3.75;;
29382;SDS011;16365;51.598;7.668;2023-02-28T15:30:57;8.38;;;3.95;;
29382;SDS011;16365;51.598;7.668;2023-02-28T15:33:27;6.90;;;3.80;;
29382;SDS011;16365;51.598;7.668;2023-02-28T15:36:13;4.45;;;3.20;;
29382;SDS011;16365;51.598;7.668;2023-02-28T15:38:43;6.22;;;3.35;;
29382;SDS011;16365;51.598;7.668;2023-02-28T15:41:21;6.53;;;3.50;;
29382;SDS011;16365;51.598;7.668;2023-02-28T15:44:14;6.82;;;3.75;;
29382;SDS011;16365;51.598;7.668;2023-02-28T15:46:55;5.47;;;3.60;;
29382;SDS011;16365;51.598;7.668;2023-02-28T15:49:25;7.60;;;3.30;;
29382;SDS011;16365;51.598;7.668;2023-02-28T15:51:52;7.03;;;3.40;;
29382;SDS011;16365;51.598;7.668;2023-02-28T15:54:27;7.20;;;3.38;;
29382;SDS011;16365;51.598;7.668;2023-02-28T15:56:57;4.90;;;3.47;;
29382;SDS011;16365;51.598;7.668;2023-02-28T15:59:28;4.75;;;3.30;;
29382;SDS011;16365;51.598;7.668;2023-02-28T16:02:03;6.43;;;3.42;;
29382;SDS011;16365;51.598;7.668;2023-02-28T16:04:54;10.15;;;3.42;;
29382;SDS011;16365;51.598;7.668;2023-02-28T16:07:22;4.80;;;3.15;;
29382;SDS011;16365;51.598;7.668;2023-02-28T16:09:50;6.60;;;3.60;;
29382;SDS011;16365;51.598;7.668;2023-02-28T16:12:20;7.15;;;3.92;;
29382;SDS011;16365;51.598;7.668;2023-02-28T16:14:52;5.97;;;3.53;;
29382;SDS011;16365;51.598;7.668;2023-02-28T16:19:48;6.25;;;3.40;;
29382;SDS011;16365;51.598;7.668;2023-02-28T16:22:15;7.70;;;3.72;;
29382;SDS011;16365;51.598;7.668;2023-02-28T16:24:42;9.70;;;3.83;;
29382;SDS011;16365;51.598;7.668;2023-02-28T16:29:56;6.10;;;3.20;;
29382;SDS011;16365;51.598;7.668;2023-02-28T16:32:23;6.20;;;3.42;;
29382;SDS011;16365;51.598;7.668;2023-02-28T16:34:49;6.60;;;3.50;;
29382;SDS011;16365;51.598;7.668;2023-02-28T16:37:17;5.90;;;3.50;;
29382;SDS011;16365;51.598;7.668;2023-02-28T16:39:45;8.43;;;3.70;;
29382;SDS011;16365;51.598;7.668;2023-02-28T16:42:16;6.25;;;3.63;;
29382;SDS011;16365;51.598;7.668;2023-02-28T16:44:53;5.88;;;3.20;;
29382;SDS011;16365;51.598;7.668;2023-02-28T16:47:21;7.15;;;3.20;;
29382;SDS011;16365;51.598;7.668;2023-02-28T16:49:48;7.25;;;3.20;;
29382;SDS011;16365;51.598;7.668;2023-02-28T16:52:14;8.35;;;3.90;;
29382;SDS011;16365;51.598;7.668;2023-02-28T16:54:41;8.52;;;3.20;;
29382;SDS011;16365;51.598;7.668;2023-02-28T16:57:15;12.00;;;4.10;;
29382;SDS011;16365;51.598;7.668;2023-02-28T16:59:47;5.38;;;3.15;;
29382;SDS011;16365;51.598;7.668;2023-02-28T17:02:17;13.13;;;3.63;;
29382;SDS011;16365;51.598;7.668;2023-02-28T17:04:45;8.02;;;3.35;;
29382;SDS011;16365;51.598;7.668;2023-02-28T17:07:13;5.15;;;3.45;;
29382;SDS011;16365;51.598;7.668;2023-02-28T17:09:42;6.65;;;3.60;;
29382;SDS011;16365;51.598;7.668;2023-02-28T17:12:11;7.72;;;3.67;;